Time;durP1;ratioP1;P1;durP2;ratioP2;P2;SDS_P1;SDS_P2;PMS_P1;PMS_P2;Temp;Humidity;BMP_temperature;BMP_pressure;BME280_temperature;BME280_humidity;BME280_pressure;Samples;Min_cycle;Max_cycle;Signal;HPM_P1;HPM_P2
2021/08/16 00:05:23;;;;;;;1999.90;999.90;;;;;;;19.99;64.12;100350.16;15624991;28;20073;-60
2021/08/16 00:12:57;;;;;;;1999.90;999.90;;;;;;;19.89;64.39;100337.63;15624532;28;20054;-60
2021/08/16 00:20:29;;;;;;;1999.90;999.90;;;;;;;19.72;65.24;100327.13;15606345;28;20037;-60
2021/08/16 00:28:03;;;;;;;1999.90;999.90;;;;;;;19.65;65.05;100318.63;15680899;28;20044;-58
2021/08/16 00:35:36;;;;;;;1999.90;999.90;;;;;;;19.61;65.75;100296.00;15684414;28;20048;-60
2021/08/16 00:43:09;;;;;;;1999.90;999.90;;;;;;;19.53;65.52;100295.16;15684500;28;20136;-60
2021/08/16 00:50:42;;;;;;;1999.90;999.90;;;;;;;19.40;65.96;100284.66;15683384;28;20505;-60
2021/08/16 00:58:16;;;;;;;;;;;;;;;19.38;65.61;100281.41;15683916;28;20498;-61
2021/08/16 01:05:48;;;;;;;1999.90;999.90;;;;;;;19.23;66.16;100274.94;15665716;28;20274;-61
2021/08/16 01:13:23;;;;;;;1999.90;999.90;;;;;;;19.15;66.96;100276.13;15682610;28;20491;-60
2021/08/16 01:20:56;;;;;;;1999.90;999.90;;;;;;;19.11;66.76;100261.19;15664512;28;20037;-61
2021/08/16 01:28:30;;;;;;;1999.90;999.90;;;;;;;18.96;66.71;100254.69;15621358;28;20065;-60
2021/08/16 01:36:46;;;;;;;1999.90;999.90;;;;;;;19.06;66.19;100236.13;15619636;28;20380;-61
2021/08/16 01:44:34;;;;;;;1999.90;999.90;;;;;;;18.97;66.10;100219.56;15605720;28;20130;-61
2021/08/16 01:52:07;;;;;;;1999.90;999.90;;;;;;;19.11;64.81;100207.47;15618326;28;20088;-61
2021/08/16 01:59:41;;;;;;;1999.90;999.90;;;;;;;18.86;65.81;100199.78;15618359;28;20076;-61
2021/08/16 02:07:25;;;;;;;;;;;;;;;;;;;;;
2021/08/16 02:15:29;;;;;;;1999.90;999.90;;;;;;;18.61;67.22;100170.63;15609456;28;20045;-60
2021/08/16 02:23:32;;;;;;;;;;;;;;;;;;;;;
2021/08/16 02:31:42;;;;;;;;;;;;;;;;;;;;;
2021/08/16 02:39:14;;;;;;;1999.90;999.90;;;;;;;18.63;66.57;100169.00;15658488;28;20310;-60
2021/08/16 02:46:48;;;;;;;1999.90;999.90;;;;;;;18.62;66.77;100155.28;15678203;28;20156;-59
2021/08/16 02:54:20;;;;;;;1999.90;999.90;;;;;;;18.53;66.94;100146.38;15678395;28;20051;-61
2021/08/16 03:01:53;;;;;;;1999.90;999.90;;;;;;;18.46;67.43;100148.00;15669752;28;20452;-60
2021/08/16 03:09:27;;;;;;;1999.90;999.90;;;;;;;18.40;67.46;100135.47;15690852;28;20052;-60
2021/08/16 03:25:23;;;;;;;1999.90;999.90;;;;;;;18.44;67.43;100127.81;15643794;28;20056;-60
2021/08/16 03:33:47;;;;;;;;;;;;;;;;;;;;;
2021/08/16 03:41:49;;;;;;;1999.90;999.90;;;;;;;18.23;67.88;100121.28;15589694;28;20053;-59
2021/08/16 03:49:45;;;;;;;1999.90;999.90;;;;;;;18.38;68.01;100125.78;15625918;28;20068;-60
2021/08/16 03:57:18;;;;;;;1999.90;999.90;;;;;;;18.45;68.13;100111.69;15652469;28;20513;-61
2021/08/16 04:05:12;;;;;;;1999.90;999.90;;;;;;;18.86;67.37;100105.66;15687175;28;20045;-61
2021/08/16 04:13:00;;;;;;;1999.90;999.90;;;;;;;18.93;66.19;100106.47;15663498;28;20053;-59
2021/08/16 04:20:42;;;;;;;1999.90;999.90;;;;;;;19.10;66.46;100113.34;15649028;28;20045;-60
2021/08/16 04:28:15;;;;;;;1999.90;999.90;;;;;;;19.12;64.56;100124.25;15666960;28;20041;-60
2021/08/16 04:35:48;;;;;;;1999.90;999.90;;;;;;;19.29;64.52;100129.09;15684946;28;20115;-59
2021/08/16 04:44:09;;;;;;;1999.90;999.90;;;;;;;19.55;64.33;100134.28;15684062;28;20124;-58
2021/08/16 04:52:11;;;;;;;1999.90;999.90;;;;;;;19.76;65.16;100146.78;15671073;28;20552;-59
2021/08/16 05:00:13;;;;;;;1999.90;999.90;;;;;;;19.90;64.89;100146.72;15660404;28;20081;-61
2021/08/16 05:07:52;;;;;;;1999.90;999.90;;;;;;;20.06;63.31;100140.59;15678296;28;20053;-60
2021/08/16 05:15:24;;;;;;;1999.90;999.90;;;;;;;20.51;63.85;100138.75;15682734;28;20471;-59
2021/08/16 05:23:07;;;;;;;1999.90;999.90;;;;;;;20.81;62.32;100152.31;15666165;28;20472;-60
2021/08/16 05:30:39;;;;;;;1999.90;999.90;;;;;;;21.12;60.52;100152.47;15602883;28;20045;-61
2021/08/16 05:38:13;;;;;;;1999.90;999.90;;;;;;;21.86;60.11;100157.41;15619377;28;20388;-59
2021/08/16 05:45:45;;;;;;;1999.90;999.90;;;;;;;22.18;58.59;100150.56;15618334;28;20041;-58
2021/08/16 05:53:19;;;;;;;1999.90;999.90;;;;;;;22.31;58.50;100162.97;15618141;28;20057;-60
2021/08/16 06:00:51;;;;;;;1999.90;999.90;;;;;;;22.29;58.74;100161.78;15600403;28;20041;-59
2021/08/16 06:08:24;;;;;;;1999.90;999.90;;;;;;;22.36;58.81;100156.81;15617366;28;20087;-62
2021/08/16 06:15:56;;;;;;;1999.90;999.90;;;;;;;22.19;58.94;100161.50;15600334;28;20072;-57
2021/08/16 06:23:30;;;;;;;1999.90;999.90;;;;;;;22.43;58.68;100164.44;15620458;28;20052;-57
2021/08/16 06:31:03;;;;;;;1999.90;999.90;;;;;;;22.73;59.07;100184.31;15678692;28;20437;-59
2021/08/16 06:38:37;;;;;;;1999.90;999.90;;;;;;;22.86;58.59;100204.47;15679117;28;20049;-57
2021/08/16 06:46:09;;;;;;;1999.90;999.90;;;;;;;22.46;59.73;100197.69;15678786;28;20073;-60
2021/08/16 06:53:42;;;;;;;1999.90;999.90;;;;;;;22.93;59.12;100192.19;15657700;28;20036;-61
2021/08/16 07:01:19;;;;;;;1999.90;999.90;;;;;;;22.84;59.78;100189.06;15675892;28;20641;-60
2021/08/16 07:08:53;;;;;;;1999.90;999.90;;;;;;;23.71;58.03;100185.16;15677772;28;20049;-61
2021/08/16 07:16:25;;;;;;;1999.90;999.90;;;;;;;24.18;56.77;100179.34;15654543;28;20052;-62
2021/08/16 07:23:59;;;;;;;1999.90;999.90;;;;;;;23.66;57.96;100191.38;15652351;28;20050;-61
2021/08/16 07:31:31;;;;;;;1999.90;999.90;;;;;;;23.54;58.28;100200.47;15630123;28;20688;-61
2021/08/16 07:39:08;;;;;;;1999.90;999.90;;;;;;;23.70;56.39;100206.34;15657347;28;20402;-61
2021/08/16 07:46:41;;;;;;;1999.90;999.90;;;;;;;23.93;56.60;100216.06;15664021;28;20510;-62
2021/08/16 07:54:14;;;;;;;1999.90;999.90;;;;;;;23.83;55.85;100209.34;15686657;28;20045;-63
2021/08/16 08:01:50;;;;;;;1999.90;999.90;;;;;;;24.10;54.46;100218.59;15685764;28;20044;-58
2021/08/16 08:09:24;;;;;;;1999.90;999.90;;;;;;;24.43;52.85;100221.59;15657219;28;20056;-63
2021/08/16 08:16:56;;;;;;;1999.90;999.90;;;;;;;24.93;49.84;100220.50;15605878;28;20041;-61
2021/08/16 08:24:31;;;;;;;1999.90;999.90;;;;;;;25.22;47.33;100232.88;15651001;28;20051;-60
2021/08/16 08:32:08;;;;;;;1999.90;999.90;;;;;;;25.51;45.46;100223.56;15681404;28;20087;-60
2021/08/16 08:39:43;;;;;;;1999.90;999.90;;;;;;;26.51;46.34;100224.50;15684872;28;20398;-60
2021/08/16 08:47:15;;;;;;;1999.90;999.90;;;;;;;26.60;45.78;100229.56;15684603;28;20041;-61
2021/08/16 08:54:49;;;;;;;1999.90;999.90;;;;;;;26.93;44.85;100238.78;15685478;28;20079;-61
2021/08/16 09:02:21;;;;;;;1999.90;999.90;;;;;;;26.94;43.52;100237.50;15684500;28;20056;-61
2021/08/16 09:09:55;;;;;;;1999.90;999.90;;;;;;;27.21;44.46;100246.47;15682368;28;20047;-58
2021/08/16 09:17:29;;;;;;;1999.90;999.90;;;;;;;27.13;43.68;100245.09;15682526;28;20052;-60
2021/08/16 09:25:06;;;;;;;1999.90;999.90;;;;;;;26.40;45.33;100247.72;15662896;28;20050;-61
2021/08/16 09:32:40;;;;;;;1999.90;999.90;;;;;;;26.85;41.96;100254.56;15674367;28;20048;-61
2021/08/16 09:40:15;;;;;;;1999.90;999.90;;;;;;;26.00;43.16;100258.63;15679468;28;20045;-61
2021/08/16 09:47:47;;;;;;;1999.90;999.90;;;;;;;26.66;41.39;100248.56;15678499;28;20045;-62
2021/08/16 09:55:21;;;;;;;1999.90;999.90;;;;;;;27.22;40.67;100241.56;15676146;28;20068;-60
2021/08/16 10:02:55;;;;;;;1999.90;999.90;;;;;;;26.27;42.04;100223.19;15652110;28;20048;-56
2021/08/16 10:10:31;;;;;;;1999.90;999.90;;;;;;;26.06;42.73;100227.44;15652803;28;20042;-60
2021/08/16 10:18:11;;;;;;;1999.90;999.90;;;;;;;26.99;41.98;100228.34;15614942;28;20041;-58
2021/08/16 10:25:46;;;;;;;1999.90;999.90;;;;;;;26.11;42.55;100221.97;15655583;28;20480;-60
2021/08/16 10:33:19;;;;;;;1999.90;999.90;;;;;;;26.03;44.64;100222.59;15679257;28;20049;-61
2021/08/16 10:40:56;;;;;;;1999.90;999.90;;;;;;;27.61;40.28;100200.09;15656774;28;20090;-60
2021/08/16 10:48:32;;;;;;;1999.90;999.90;;;;;;;29.66;37.69;100192.56;15676544;28;20076;-61
2021/08/16 10:56:16;;;;;;;1999.90;999.90;;;;;;;27.57;41.15;100194.50;15636577;28;20124;-60
2021/08/16 11:04:13;;;;;;;1999.90;999.90;;;;;;;27.94;40.93;100189.16;15614787;28;20042;-60
2021/08/16 11:11:53;;;;;;;1999.90;999.90;;;;;;;26.81;41.56;100185.97;15613596;28;20041;-59
2021/08/16 11:19:26;;;;;;;1999.90;999.90;;;;;;;26.39;41.82;100180.34;15617543;28;20064;-60
2021/08/16 11:27:00;;;;;;;1999.90;999.90;;;;;;;28.59;39.35;100171.13;15673972;28;20070;-59
2021/08/16 11:34:45;;;;;;;1999.90;999.90;;;;;;;27.44;39.54;100161.44;15648957;28;20048;-57
2021/08/16 11:42:19;;;;;;;1999.90;999.90;;;;;;;27.68;39.90;100173.28;15606618;28;20506;-59
2021/08/16 11:49:59;;;;;;;1999.90;999.90;;;;;;;29.13;36.73;100174.72;15624436;28;20045;-61
2021/08/16 11:57:34;;;;;;;1999.90;999.90;;;;;;;27.38;38.80;100169.78;15624297;28;20114;-61
2021/08/16 12:05:07;;;;;;;1999.90;999.90;;;;;;;26.44;40.61;100170.38;15642702;28;20052;-61
2021/08/16 12:12:42;;;;;;;1999.90;999.90;;;;;;;26.61;40.12;100173.94;15646939;28;20103;-62
2021/08/16 12:20:16;;;;;;;1999.90;999.90;;;;;;;26.74;39.46;100174.75;15604833;28;20571;-61
2021/08/16 12:27:56;;;;;;;1999.90;999.90;;;;;;;27.53;39.21;100172.97;15656754;28;20506;-58
2021/08/16 12:35:29;;;;;;;1999.90;999.90;;;;;;;27.48;41.83;100168.63;15649135;28;20519;-60
2021/08/16 12:43:04;;;;;;;;;;;;;;;28.35;38.32;100187.25;15683191;28;20037;-58
2021/08/16 12:50:37;;;;;;;1999.90;999.90;;;;;;;27.31;40.88;100195.84;15627070;28;19921;-58
2021/08/16 12:58:33;;;;;;;1999.90;999.90;;;;;;;27.77;39.22;100174.19;15604285;28;20045;-58
2021/08/16 13:06:05;;;;;;;1999.90;999.90;;;;;;;28.24;39.30;100172.44;15624278;28;20041;-60
2021/08/16 13:13:39;;;;;;;;;;;;;;;31.77;32.53;100177.56;15636645;28;20073;-59
2021/08/16 13:21:15;;;;;;;1999.90;999.90;;;;;;;28.11;38.94;100156.13;15646630;28;20420;-59
2021/08/16 13:28:59;;;;;;;1999.90;999.90;;;;;;;28.81;38.15;100165.31;15677889;28;20041;-61
2021/08/16 13:36:34;;;;;;;1999.90;999.90;;;;;;;29.00;36.24;100158.41;15646659;28;20043;-60
2021/08/16 13:44:08;;;;;;;1999.90;999.90;;;;;;;28.84;36.46;100157.81;15679720;28;20094;-60
2021/08/16 13:51:41;;;;;;;1999.90;999.90;;;;;;;26.79;39.45;100157.03;15679588;28;20449;-56
2021/08/16 13:59:14;;;;;;;1999.90;999.90;;;;;;;26.89;40.02;100169.41;15679739;28;20071;-59
2021/08/16 14:06:47;;;;;;;1999.90;999.90;;;;;;;26.81;40.50;100177.41;15621864;28;20057;-61
2021/08/16 14:14:20;;;;;;;1999.90;999.90;;;;;;;26.23;41.10;100188.13;15676800;28;20048;-59
2021/08/16 14:21:53;;;;;;;1999.90;999.90;;;;;;;25.86;40.58;100181.84;15670580;28;20513;-59
2021/08/16 14:29:27;;;;;;;1999.90;999.90;;;;;;;25.44;41.15;100178.88;15638383;28;20120;-61
2021/08/16 14:36:59;;;;;;;1999.90;999.90;;;;;;;25.48;41.72;100187.34;15675749;28;20049;-61
2021/08/16 14:44:33;;;;;;;1999.90;999.90;;;;;;;24.89;42.18;100206.28;15675348;28;20156;-60
2021/08/16 14:52:06;;;;;;;1999.90;999.90;;;;;;;24.48;43.42;100201.09;15674531;28;20048;-60
2021/08/16 14:59:39;;;;;;;1999.90;999.90;;;;;;;24.67;43.63;100213.75;15674363;28;20041;-60
2021/08/16 15:07:12;;;;;;;1999.90;999.90;;;;;;;23.99;43.90;100205.78;15622343;28;20136;-62
2021/08/16 15:14:45;;;;;;;1999.90;999.90;;;;;;;23.74;46.10;100229.84;15611957;28;20041;-61
2021/08/16 15:22:19;;;;;;;1999.90;999.90;;;;;;;24.05;45.91;100221.94;15612978;28;20528;-57
2021/08/16 15:29:54;;;;;;;1999.90;999.90;;;;;;;24.15;45.45;100226.59;15662222;22;20091;-74
2021/08/16 15:37:28;;;;;;;1999.90;999.90;;;;;;;22.79;51.03;100277.66;15765933;28;20113;-75
2021/08/16 15:45:03;;;;;;;1999.90;999.90;;;;;;;22.04;54.12;100295.59;15765972;28;20450;-73
2021/08/16 15:52:38;;;;;;;1999.90;999.90;;;;;;;21.76;55.13;100331.53;15672705;28;20068;-74
2021/08/16 16:00:14;;;;;;;1999.90;999.90;;;;;;;20.74;58.64;100357.31;15609800;28;20041;-74
2021/08/16 16:07:48;;;;;;;1999.90;999.90;;;;;;;20.16;59.62;100340.84;15599506;28;20069;-74
2021/08/16 16:15:23;;;;;;;1999.90;999.90;;;;;;;20.05;58.74;100323.84;15605305;28;20065;-73
2021/08/16 16:22:57;;;;;;;1999.90;999.90;;;;;;;20.38;58.36;100341.59;15605556;28;20037;-73
2021/08/16 16:30:29;;;;;;;1999.90;999.90;;;;;;;20.37;56.71;100337.94;15603693;28;20049;-74
2021/08/16 16:38:05;;;;;;;1999.90;999.90;;;;;;;20.59;56.36;100326.56;15585942;28;20128;-73
2021/08/16 16:45:37;;;;;;;1999.90;999.90;;;;;;;20.23;57.56;100357.03;15605185;28;20053;-73
2021/08/16 16:53:11;;;;;;;1999.90;999.90;;;;;;;20.13;58.10;100367.97;15620114;28;20119;-75
2021/08/16 17:00:44;;;;;;;1999.90;999.90;;;;;;;20.27;57.70;100386.13;15614392;28;20049;-73
2021/08/16 17:08:17;;;;;;;1999.90;999.90;;;;;;;19.79;58.85;100393.03;15618688;28;20069;-73
2021/08/16 17:15:49;;;;;;;1999.90;999.90;;;;;;;19.95;58.97;100406.00;15618089;28;20128;-73
2021/08/16 17:23:23;;;;;;;1999.90;999.90;;;;;;;19.81;59.49;100410.44;15602031;28;20541;-73
2021/08/16 17:30:55;;;;;;;1999.90;999.90;;;;;;;19.51;63.66;100419.25;15604512;28;20037;-74
2021/08/16 17:38:34;;;;;;;1999.90;999.90;;;;;;;19.20;66.96;100417.16;15595929;28;20041;-74
2021/08/16 17:46:09;;;;;;;1999.90;999.90;;;;;;;18.88;68.93;100417.84;15580704;28;1027003;-75
2021/08/16 17:53:42;;;;;;;1999.90;999.90;;;;;;;18.44;72.00;100424.44;15600828;28;20053;-74
2021/08/16 18:01:15;;;;;;;1999.90;999.90;;;;;;;18.11;74.26;100425.38;15598741;28;20064;-74
2021/08/16 18:08:59;;;;;;;1999.90;999.90;;;;;;;18.24;74.36;100430.75;15615279;28;20041;-74
2021/08/16 18:16:36;;;;;;;1999.90;999.90;;;;;;;17.79;76.42;100436.41;15616136;28;20061;-74
2021/08/16 18:24:12;;;;;;;1999.90;999.90;;;;;;;17.93;76.56;100452.66;15592858;28;20046;-74
2021/08/16 18:31:44;;;;;;;1999.90;999.90;;;;;;;17.59;77.44;100468.81;15554112;28;20053;-74
2021/08/16 18:39:18;;;;;;;1999.90;999.90;;;;;;;17.56;78.08;100478.06;15555196;28;20062;-74
2021/08/16 18:46:53;;;;;;;1999.90;999.90;;;;;;;17.65;77.06;100466.47;15535760;28;20506;-74
2021/08/16 18:54:26;;;;;;;1999.90;999.90;;;;;;;17.76;77.46;100479.50;15553694;28;20053;-74
2021/08/16 19:01:59;;;;;;;1999.90;999.90;;;;;;;17.81;77.64;100498.09;15552651;28;20054;-74
2021/08/16 19:09:32;;;;;;;1999.90;999.90;;;;;;;17.58;75.29;100484.94;15552591;28;20121;-74
2021/08/16 19:17:05;;;;;;;1999.90;999.90;;;;;;;17.25;74.79;100494.22;15653534;28;20053;-74
2021/08/16 19:24:39;;;;;;;1999.90;999.90;;;;;;;16.86;76.38;100506.97;15673109;28;20045;-74
2021/08/16 19:32:11;;;;;;;1999.90;999.90;;;;;;;16.51;74.25;100527.75;15652065;28;20047;-76
2021/08/16 19:39:45;;;;;;;1999.90;999.90;;;;;;;16.76;74.41;100547.06;15710163;28;20045;-73
2021/08/16 19:47:17;;;;;;;1999.90;999.90;;;;;;;16.83;74.20;100548.00;15660423;28;20092;-75
2021/08/16 19:54:51;;;;;;;1999.90;999.90;;;;;;;16.52;74.81;100553.91;15637026;28;20041;-74
2021/08/16 20:02:23;;;;;;;;;;;;;;;16.78;73.67;100576.50;15627044;28;20429;-74
2021/08/16 20:09:56;;;;;;;1999.90;999.90;;;;;;;16.71;75.13;100568.75;15673159;28;19960;-74
2021/08/16 20:17:30;;;;;;;;;;;;;;;16.87;75.83;100553.66;15683893;28;20049;-75
2021/08/16 20:25:05;;;;;;;1999.90;999.90;;;;;;;16.81;75.26;100564.47;15648364;28;20019;-75
2021/08/16 20:32:37;;;;;;;1999.90;999.90;;;;;;;16.75;75.74;100563.16;15623308;28;20505;-74
2021/08/16 20:40:12;;;;;;;1999.90;999.90;;;;;;;16.79;75.73;100560.41;15619848;28;20046;-75
2021/08/16 20:47:45;;;;;;;1999.90;999.90;;;;;;;16.81;75.76;100578.56;15592309;28;20119;-74
2021/08/16 20:55:19;;;;;;;1999.90;999.90;;;;;;;16.66;75.46;100562.56;15607798;28;20061;-71
2021/08/16 21:02:51;;;;;;;1999.90;999.90;;;;;;;16.56;75.40;100578.09;15608940;28;20041;-72
2021/08/16 21:10:24;;;;;;;1999.90;999.90;;;;;;;16.29;75.68;100565.19;15614964;28;20045;-75
2021/08/16 21:17:56;;;;;;;;;;;;;;;16.53;75.08;100586.50;15619154;28;20045;-75
2021/08/16 21:25:30;;;;;;;1999.90;999.90;;;;;;;16.36;74.82;100576.56;15585895;28;19921;-74
2021/08/16 21:33:02;;;;;;;1999.90;999.90;;;;;;;16.33;74.39;100574.50;15618496;28;20124;-74
2021/08/16 21:40:37;;;;;;;1999.90;999.90;;;;;;;16.37;74.71;100564.13;15601652;28;20046;-74
2021/08/16 21:48:11;;;;;;;1999.90;999.90;;;;;;;16.35;73.44;100564.47;15622604;28;20069;-74
2021/08/16 21:55:44;;;;;;;1999.90;999.90;;;;;;;16.24;74.14;100540.97;15491862;28;20039;-75
2021/08/16 22:03:16;;;;;;;;;;;;;;;16.21;74.08;100552.16;15492436;28;20046;-75
2021/08/16 22:10:49;;;;;;;1999.90;999.90;;;;;;;16.13;74.46;100542.78;15492330;28;19961;-75
2021/08/16 22:18:22;;;;;;;;;;;;;;;16.03;74.96;100535.75;15473835;28;20074;-75
2021/08/16 22:25:55;;;;;;;1999.90;999.90;;;;;;;15.92;75.47;100531.94;15494032;28;19921;-75
2021/08/16 22:33:27;;;;;;;;;;;;;;;15.87;74.80;100523.81;15492951;28;20170;-75
2021/08/16 22:41:01;;;;;;;1999.90;999.90;;;;;;;15.59;75.91;100505.16;15493463;28;19921;-74
2021/08/16 22:48:54;;;;;;;;;;;;;;;15.46;75.55;100489.66;15492521;28;20101;-75
2021/08/16 22:56:27;;;;;;;1999.90;999.90;;;;;;;15.59;74.43;100491.13;15490348;28;19921;-75
2021/08/16 23:03:59;;;;;;;;;;;;;;;15.50;74.47;100479.28;15488566;28;20042;-75
2021/08/16 23:11:33;;;;;;;1999.90;999.90;;;;;;;15.59;73.74;100463.00;15468214;28;20008;-75
2021/08/16 23:19:05;;;;;;;;;;;;;;;15.39;73.94;100471.81;15474456;28;20046;-73
2021/08/16 23:26:38;;;;;;;1999.90;999.90;;;;;;;15.05;75.29;100451.88;15512314;28;19925;-75
2021/08/16 23:34:13;;;;;;;1999.90;999.90;;;;;;;15.06;74.29;100449.88;15496342;28;20507;-74
2021/08/16 23:41:46;;;;;;;1999.90;999.90;;;;;;;15.34;73.22;100452.47;15515339;28;20046;-74
2021/08/16 23:49:19;;;;;;;1999.90;999.90;;;;;;;15.26;72.93;100451.50;15501874;28;20046;-75
2021/08/16 23:56:52;;;;;;;1999.90;999.90;;;;;;;15.25;71.91;100459.13;15483978;28;20117;-75
